sensor_id;sensor_type;location;lat;lon;timestamp;temperature;humidity
68011;DHT22;54794;48.348;7.878;2023-02-08T00:05:11;2.60;60.70
68011;DHT22;54794;48.348;7.878;2023-02-08T00:08:05;4.10;61.50
68011;DHT22;54794;48.348;7.878;2023-02-08T00:14:33;3.30;61.20
68011;DHT22;54794;48.348;7.878;2023-02-08T00:20:20;3.10;61.00
68011;DHT22;54794;48.348;7.878;2023-02-08T00:23:28;3.60;61.30
68011;DHT22;54794;48.348;7.878;2023-02-08T00:27:04;2.80;60.80
68011;DHT22;54794;48.348;7.878;2023-02-08T00:30:13;3.70;61.10
68011;DHT22;54794;48.348;7.878;2023-02-08T00:33:22;3.20;60.80
68011;DHT22;54794;48.348;7.878;2023-02-08T00:40:58;3.30;60.70
68011;DHT22;54794;48.348;7.878;2023-02-08T00:44:02;3.20;61.00
68011;DHT22;54794;48.348;7.878;2023-02-08T00:47:54;3.20;60.90
68011;DHT22;54794;48.348;7.878;2023-02-08T00:51:47;2.80;61.20
68011;DHT22;54794;48.348;7.878;2023-02-08T00:55:45;3.00;60.50
68011;DHT22;54794;48.348;7.878;2023-02-08T01:03:18;3.70;60.90
68011;DHT22;54794;48.348;7.878;2023-02-08T01:07:03;3.70;61.20
68011;DHT22;54794;48.348;7.878;2023-02-08T01:25:24;2.90;60.80
68011;DHT22;54794;48.348;7.878;2023-02-08T01:29:15;3.00;60.90
68011;DHT22;54794;48.348;7.878;2023-02-08T01:37:13;3.70;61.20
68011;DHT22;54794;48.348;7.878;2023-02-08T01:55:29;2.90;60.60
68011;DHT22;54794;48.348;7.878;2023-02-08T02:02:39;2.80;60.80
68011;DHT22;54794;48.348;7.878;2023-02-08T02:10:02;2.70;60.80
68011;DHT22;54794;48.348;7.878;2023-02-08T02:13:52;2.70;60.70
68011;DHT22;54794;48.348;7.878;2023-02-08T02:16:24;3.60;61.20
68011;DHT22;54794;48.348;7.878;2023-02-08T02:58:29;2.40;61.20
68011;DHT22;54794;48.348;7.878;2023-02-08T03:02:03;2.10;61.00
68011;DHT22;54794;48.348;7.878;2023-02-08T03:05:43;2.00;61.10
68011;DHT22;54794;48.348;7.878;2023-02-08T03:09:07;2.30;61.40
68011;DHT22;54794;48.348;7.878;2023-02-08T03:16:38;2.00;61.10
68011;DHT22;54794;48.348;7.878;2023-02-08T03:20:26;1.90;61.20
68011;DHT22;54794;48.348;7.878;2023-02-08T03:36:06;1.80;61.20
68011;DHT22;54794;48.348;7.878;2023-02-08T03:43:10;1.80;61.20
68011;DHT22;54794;48.348;7.878;2023-02-08T03:46:56;1.70;61.30
68011;DHT22;54794;48.348;7.878;2023-02-08T03:50:11;2.00;61.30
68011;DHT22;54794;48.348;7.878;2023-02-08T03:53:16;1.70;61.30
68011;DHT22;54794;48.348;7.878;2023-02-08T03:56:16;1.70;61.40
68011;DHT22;54794;48.348;7.878;2023-02-08T04:04:47;1.70;61.20
68011;DHT22;54794;48.348;7.878;2023-02-08T04:11:01;1.80;61.50
68011;DHT22;54794;48.348;7.878;2023-02-08T04:14:38;1.70;61.40
68011;DHT22;54794;48.348;7.878;2023-02-08T04:18:01;1.60;61.20
68011;DHT22;54794;48.348;7.878;2023-02-08T04:25:08;1.70;61.30
68011;DHT22;54794;48.348;7.878;2023-02-08T04:31:46;1.60;61.30
68011;DHT22;54794;48.348;7.878;2023-02-08T04:35:40;1.50;61.30
68011;DHT22;54794;48.348;7.878;2023-02-08T04:47:21;1.50;61.40
68011;DHT22;54794;48.348;7.878;2023-02-08T04:51:11;1.30;61.30
68011;DHT22;54794;48.348;7.878;2023-02-08T04:54:26;1.90;61.70
68011;DHT22;54794;48.348;7.878;2023-02-08T04:57:38;1.50;61.50
68011;DHT22;54794;48.348;7.878;2023-02-08T05:04:05;1.30;61.40
68011;DHT22;54794;48.348;7.878;2023-02-08T05:07:18;1.50;61.50
68011;DHT22;54794;48.348;7.878;2023-02-08T05:09:48;1.40;61.50
68011;DHT22;54794;48.348;7.878;2023-02-08T05:16:07;1.30;61.50
68011;DHT22;54794;48.348;7.878;2023-02-08T05:18:38;1.90;62.00
68011;DHT22;54794;48.348;7.878;2023-02-08T05:21:05;1.20;61.50
68011;DHT22;54794;48.348;7.878;2023-02-08T05:23:32;1.80;62.40
68011;DHT22;54794;48.348;7.878;2023-02-08T05:25:59;1.90;62.00
68011;DHT22;54794;48.348;7.878;2023-02-08T05:28:30;2.00;62.10
68011;DHT22;54794;48.348;7.878;2023-02-08T05:37:49;1.20;61.50
68011;DHT22;54794;48.348;7.878;2023-02-08T05:45:11;1.20;61.50
68011;DHT22;54794;48.348;7.878;2023-02-08T05:48:57;1.20;61.40
68011;DHT22;54794;48.348;7.878;2023-02-08T05:51:26;1.90;61.90
68011;DHT22;54794;48.348;7.878;2023-02-08T05:54:27;2.20;62.10
68011;DHT22;54794;48.348;7.878;2023-02-08T05:57:04;1.30;61.70
68011;DHT22;54794;48.348;7.878;2023-02-08T06:03:25;1.10;62.10
68011;DHT22;54794;48.348;7.878;2023-02-08T06:06:02;1.00;61.60
68011;DHT22;54794;48.348;7.878;2023-02-08T06:09:27;1.00;61.70
68011;DHT22;54794;48.348;7.878;2023-02-08T06:17:00;0.60;61.20
68011;DHT22;54794;48.348;7.878;2023-02-08T06:19:27;1.10;61.50
68011;DHT22;54794;48.348;7.878;2023-02-08T06:24:50;0.80;61.50
68011;DHT22;54794;48.348;7.878;2023-02-08T06:27:43;0.90;61.60
68011;DHT22;54794;48.348;7.878;2023-02-08T06:33:41;1.00;61.70
68011;DHT22;54794;48.348;7.878;2023-02-08T06:36:08;1.60;62.10
68011;DHT22;54794;48.348;7.878;2023-02-08T06:38:35;0.90;61.60
68011;DHT22;54794;48.348;7.878;2023-02-08T06:41:02;1.60;62.10
68011;DHT22;54794;48.348;7.878;2023-02-08T06:43:29;1.80;62.20
68011;DHT22;54794;48.348;7.878;2023-02-08T06:45:56;0.80;61.70
68011;DHT22;54794;48.348;7.878;2023-02-08T06:48:23;0.80;61.70
68011;DHT22;54794;48.348;7.878;2023-02-08T06:50:53;0.80;61.70
68011;DHT22;54794;48.348;7.878;2023-02-08T06:53:20;0.80;61.70
68011;DHT22;54794;48.348;7.878;2023-02-08T06:55:48;0.80;61.70
68011;DHT22;54794;48.348;7.878;2023-02-08T06:58:27;0.80;61.70
68011;DHT22;54794;48.348;7.878;2023-02-08T07:00:54;0.80;61.70
68011;DHT22;54794;48.348;7.878;2023-02-08T07:03:22;0.80;61.70
68011;DHT22;54794;48.348;7.878;2023-02-08T07:05:48;0.80;61.70
68011;DHT22;54794;48.348;7.878;2023-02-08T07:08:32;0.80;61.70
68011;DHT22;54794;48.348;7.878;2023-02-08T07:10:59;0.80;61.70
68011;DHT22;54794;48.348;7.878;2023-02-08T07:13:31;0.80;61.80
68011;DHT22;54794;48.348;7.878;2023-02-08T07:17:04;1.70;62.40
68011;DHT22;54794;48.348;7.878;2023-02-08T07:19:47;0.80;62.00
68011;DHT22;54794;48.348;7.878;2023-02-08T07:22:14;1.10;61.90
68011;DHT22;54794;48.348;7.878;2023-02-08T07:24:44;1.50;62.30
68011;DHT22;54794;48.348;7.878;2023-02-08T07:27:15;1.80;62.60
68011;DHT22;54794;48.348;7.878;2023-02-08T07:29:52;0.80;62.00
68011;DHT22;54794;48.348;7.878;2023-02-08T07:32:57;0.80;62.10
68011;DHT22;54794;48.348;7.878;2023-02-08T07:35:46;1.70;62.70
68011;DHT22;54794;48.348;7.878;2023-02-08T07:38:19;1.00;62.10
68011;DHT22;54794;48.348;7.878;2023-02-08T07:41:06;0.90;62.10
68011;DHT22;54794;48.348;7.878;2023-02-08T07:43:58;2.00;62.70
68011;DHT22;54794;48.348;7.878;2023-02-08T07:47:12;1.80;62.70
68011;DHT22;54794;48.348;7.878;2023-02-08T07:50:27;1.70;62.70
68011;DHT22;54794;48.348;7.878;2023-02-08T07:53:21;0.70;62.20
68011;DHT22;54794;48.348;7.878;2023-02-08T08:00:08;1.00;62.30
68011;DHT22;54794;48.348;7.878;2023-02-08T08:02:59;1.10;62.70
68011;DHT22;54794;48.348;7.878;2023-02-08T08:05:48;1.40;62.80
68011;DHT22;54794;48.348;7.878;2023-02-08T08:08:29;0.90;62.50
68011;DHT22;54794;48.348;7.878;2023-02-08T08:11:39;1.50;62.70
68011;DHT22;54794;48.348;7.878;2023-02-08T08:14:20;1.20;62.50
68011;DHT22;54794;48.348;7.878;2023-02-08T08:17:17;1.10;62.40
68011;DHT22;54794;48.348;7.878;2023-02-08T08:19:44;1.50;62.50
68011;DHT22;54794;48.348;7.878;2023-02-08T08:22:11;1.90;62.70
68011;DHT22;54794;48.348;7.878;2023-02-08T08:24:38;1.80;62.50
68011;DHT22;54794;48.348;7.878;2023-02-08T08:27:05;1.60;62.30
68011;DHT22;54794;48.348;7.878;2023-02-08T08:29:51;1.70;62.30
68011;DHT22;54794;48.348;7.878;2023-02-08T08:32:43;2.30;62.80
68011;DHT22;54794;48.348;7.878;2023-02-08T08:38:18;1.80;62.20
68011;DHT22;54794;48.348;7.878;2023-02-08T08:40:45;1.80;62.30
68011;DHT22;54794;48.348;7.878;2023-02-08T08:43:11;1.80;62.20
68011;DHT22;54794;48.348;7.878;2023-02-08T08:45:38;2.10;62.40
68011;DHT22;54794;48.348;7.878;2023-02-08T08:48:05;1.90;62.30
68011;DHT22;54794;48.348;7.878;2023-02-08T08:50:32;1.90;62.30
68011;DHT22;54794;48.348;7.878;2023-02-08T08:52:59;2.00;62.30
68011;DHT22;54794;48.348;7.878;2023-02-08T08:55:26;2.40;62.50
68011;DHT22;54794;48.348;7.878;2023-02-08T08:57:53;2.10;62.20
68011;DHT22;54794;48.348;7.878;2023-02-08T09:00:21;2.10;62.20
68011;DHT22;54794;48.348;7.878;2023-02-08T09:02:48;2.20;62.30
68011;DHT22;54794;48.348;7.878;2023-02-08T09:05:15;2.20;62.20
68011;DHT22;54794;48.348;7.878;2023-02-08T09:07:42;2.30;62.30
68011;DHT22;54794;48.348;7.878;2023-02-08T09:10:09;2.30;62.20
68011;DHT22;54794;48.348;7.878;2023-02-08T09:12:36;2.60;62.80
68011;DHT22;54794;48.348;7.878;2023-02-08T09:15:03;2.40;62.20
68011;DHT22;54794;48.348;7.878;2023-02-08T09:17:30;2.40;62.20
68011;DHT22;54794;48.348;7.878;2023-02-08T09:19:58;2.50;62.20
68011;DHT22;54794;48.348;7.878;2023-02-08T09:22:25;2.50;62.70
68011;DHT22;54794;48.348;7.878;2023-02-08T09:24:52;2.60;62.20
68011;DHT22;54794;48.348;7.878;2023-02-08T09:27:19;2.60;62.10
68011;DHT22;54794;48.348;7.878;2023-02-08T09:29:46;3.20;62.40
68011;DHT22;54794;48.348;7.878;2023-02-08T09:32:14;2.70;62.10
68011;DHT22;54794;48.348;7.878;2023-02-08T09:34:41;2.80;62.20
68011;DHT22;54794;48.348;7.878;2023-02-08T09:37:07;2.80;62.00
68011;DHT22;54794;48.348;7.878;2023-02-08T09:39:34;2.80;62.10
68011;DHT22;54794;48.348;7.878;2023-02-08T09:53:29;3.10;62.00
68011;DHT22;54794;48.348;7.878;2023-02-08T09:56:03;3.20;62.00
68011;DHT22;54794;48.348;7.878;2023-02-08T09:58:42;3.20;62.00
68011;DHT22;54794;48.348;7.878;2023-02-08T10:01:21;3.30;62.00
68011;DHT22;54794;48.348;7.878;2023-02-08T10:06:40;3.40;62.10
68011;DHT22;54794;48.348;7.878;2023-02-08T10:09:11;3.70;62.20
68011;DHT22;54794;48.348;7.878;2023-02-08T10:17:42;3.60;62.00
68011;DHT22;54794;48.348;7.878;2023-02-08T10:21:01;3.70;61.80
68011;DHT22;54794;48.348;7.878;2023-02-08T10:26:36;3.80;61.90
68011;DHT22;54794;48.348;7.878;2023-02-08T10:32:42;3.90;61.80
68011;DHT22;54794;48.348;7.878;2023-02-08T10:35:44;3.90;61.80
68011;DHT22;54794;48.348;7.878;2023-02-08T10:38:27;4.10;61.90
68011;DHT22;54794;48.348;7.878;2023-02-08T10:49:20;4.10;61.50
68011;DHT22;54794;48.348;7.878;2023-02-08T10:52:52;4.20;61.60
68011;DHT22;54794;48.348;7.878;2023-02-08T11:00:02;4.20;61.60
68011;DHT22;54794;48.348;7.878;2023-02-08T11:10:54;4.70;61.60
68011;DHT22;54794;48.348;7.878;2023-02-08T11:18:01;4.40;61.30
68011;DHT22;54794;48.348;7.878;2023-02-08T11:21:20;4.40;61.10
68011;DHT22;54794;48.348;7.878;2023-02-08T11:32:45;4.40;61.20
68011;DHT22;54794;48.348;7.878;2023-02-08T11:36:01;4.50;61.40
68011;DHT22;54794;48.348;7.878;2023-02-08T11:38:41;4.50;61.40
68011;DHT22;54794;48.348;7.878;2023-02-08T11:41:24;5.20;61.70
68011;DHT22;54794;48.348;7.878;2023-02-08T11:44:01;4.90;61.60
68011;DHT22;54794;48.348;7.878;2023-02-08T11:46:45;5.10;61.70
68011;DHT22;54794;48.348;7.878;2023-02-08T11:49:40;5.20;61.80
68011;DHT22;54794;48.348;7.878;2023-02-08T11:52:27;4.90;61.50
68011;DHT22;54794;48.348;7.878;2023-02-08T11:55:23;4.70;61.40
68011;DHT22;54794;48.348;7.878;2023-02-08T11:58:13;4.80;61.30
68011;DHT22;54794;48.348;7.878;2023-02-08T12:01:16;4.80;61.50
68011;DHT22;54794;48.348;7.878;2023-02-08T12:04:00;5.40;61.60
68011;DHT22;54794;48.348;7.878;2023-02-08T12:07:37;5.90;61.80
68011;DHT22;54794;48.348;7.878;2023-02-08T12:21:08;5.30;61.20
68011;DHT22;54794;48.348;7.878;2023-02-08T12:29:55;6.60;62.00
68011;DHT22;54794;48.348;7.878;2023-02-08T12:36:08;6.00;60.90
68011;DHT22;54794;48.348;7.878;2023-02-08T12:48:20;6.50;61.10
68011;DHT22;54794;48.348;7.878;2023-02-08T12:54:15;6.80;60.70
68011;DHT22;54794;48.348;7.878;2023-02-08T12:56:50;6.90;60.90
68011;DHT22;54794;48.348;7.878;2023-02-08T13:02:28;7.10;61.00
68011;DHT22;54794;48.348;7.878;2023-02-08T13:05:04;7.30;60.80
68011;DHT22;54794;48.348;7.878;2023-02-08T13:07:37;7.40;60.60
68011;DHT22;54794;48.348;7.878;2023-02-08T13:10:35;7.50;60.80
68011;DHT22;54794;48.348;7.878;2023-02-08T13:13:34;7.70;60.50
68011;DHT22;54794;48.348;7.878;2023-02-08T13:16:15;7.80;59.80
68011;DHT22;54794;48.348;7.878;2023-02-08T13:18:52;7.90;59.90
68011;DHT22;54794;48.348;7.878;2023-02-08T13:21:27;8.30;60.70
68011;DHT22;54794;48.348;7.878;2023-02-08T13:23:56;8.10;60.30
68011;DHT22;54794;48.348;7.878;2023-02-08T13:26:26;8.20;60.20
68011;DHT22;54794;48.348;7.878;2023-02-08T13:28:59;8.30;60.10
68011;DHT22;54794;48.348;7.878;2023-02-08T13:31:31;8.40;60.10
68011;DHT22;54794;48.348;7.878;2023-02-08T13:34:07;8.50;60.00
68011;DHT22;54794;48.348;7.878;2023-02-08T13:37:00;8.60;59.60
68011;DHT22;54794;48.348;7.878;2023-02-08T13:39:42;8.90;59.70
68011;DHT22;54794;48.348;7.878;2023-02-08T13:42:41;8.80;59.30
68011;DHT22;54794;48.348;7.878;2023-02-08T13:45:39;8.80;58.80
68011;DHT22;54794;48.348;7.878;2023-02-08T13:48:14;8.90;58.50
68011;DHT22;54794;48.348;7.878;2023-02-08T13:50:51;8.90;59.00
68011;DHT22;54794;48.348;7.878;2023-02-08T13:56:09;9.10;58.20
68011;DHT22;54794;48.348;7.878;2023-02-08T14:01:17;9.30;58.00
68011;DHT22;54794;48.348;7.878;2023-02-08T14:06:57;9.40;58.00
68011;DHT22;54794;48.348;7.878;2023-02-08T14:10:12;9.50;58.10
68011;DHT22;54794;48.348;7.878;2023-02-08T14:13:27;9.50;58.50
68011;DHT22;54794;48.348;7.878;2023-02-08T14:19:05;9.60;57.30
68011;DHT22;54794;48.348;7.878;2023-02-08T14:21:57;9.70;57.90
68011;DHT22;54794;48.348;7.878;2023-02-08T14:24:30;9.70;57.50
68011;DHT22;54794;48.348;7.878;2023-02-08T14:27:10;9.90;58.00
68011;DHT22;54794;48.348;7.878;2023-02-08T14:29:59;9.80;57.00
68011;DHT22;54794;48.348;7.878;2023-02-08T14:32:34;9.90;57.40
68011;DHT22;54794;48.348;7.878;2023-02-08T14:37:41;9.90;57.10
68011;DHT22;54794;48.348;7.878;2023-02-08T14:51:01;9.90;56.80
68011;DHT22;54794;48.348;7.878;2023-02-08T14:53:56;10.00;56.80
68011;DHT22;54794;48.348;7.878;2023-02-08T14:56:34;10.00;56.10
68011;DHT22;54794;48.348;7.878;2023-02-08T14:59:07;10.00;56.70
68011;DHT22;54794;48.348;7.878;2023-02-08T15:01:45;10.00;56.80
68011;DHT22;54794;48.348;7.878;2023-02-08T15:04:15;10.00;56.30
68011;DHT22;54794;48.348;7.878;2023-02-08T15:06:59;9.90;56.70
68011;DHT22;54794;48.348;7.878;2023-02-08T15:09:47;10.00;56.40
68011;DHT22;54794;48.348;7.878;2023-02-08T15:12:28;10.00;56.70
68011;DHT22;54794;48.348;7.878;2023-02-08T15:14:59;10.00;56.30
68011;DHT22;54794;48.348;7.878;2023-02-08T15:17:39;10.00;56.60
68011;DHT22;54794;48.348;7.878;2023-02-08T15:20:21;10.00;56.50
68011;DHT22;54794;48.348;7.878;2023-02-08T15:23:02;10.00;55.70
68011;DHT22;54794;48.348;7.878;2023-02-08T19:13:40;4.40;58.50
68011;DHT22;54794;48.348;7.878;2023-02-08T19:16:36;4.20;57.80
68011;DHT22;54794;48.348;7.878;2023-02-08T19:19:15;5.20;58.70
68011;DHT22;54794;48.348;7.878;2023-02-08T19:22:18;4.50;58.10
68011;DHT22;54794;48.348;7.878;2023-02-08T19:28:37;4.90;57.80
68011;DHT22;54794;48.348;7.878;2023-02-08T19:43:52;4.50;57.30
68011;DHT22;54794;48.348;7.878;2023-02-08T19:47:10;4.10;57.30
68011;DHT22;54794;48.348;7.878;2023-02-08T19:49:40;4.50;57.20
68011;DHT22;54794;48.348;7.878;2023-02-08T19:52:31;4.40;57.30
68011;DHT22;54794;48.348;7.878;2023-02-08T19:55:18;4.50;57.40
68011;DHT22;54794;48.348;7.878;2023-02-08T19:58:26;4.50;57.40
68011;DHT22;54794;48.348;7.878;2023-02-08T20:01:18;5.30;57.90
68011;DHT22;54794;48.348;7.878;2023-02-08T20:03:56;4.40;57.30
68011;DHT22;54794;48.348;7.878;2023-02-08T20:07:02;5.20;57.80
68011;DHT22;54794;48.348;7.878;2023-02-08T20:09:35;4.60;57.10
68011;DHT22;54794;48.348;7.878;2023-02-08T20:12:24;5.10;57.60
68011;DHT22;54794;48.348;7.878;2023-02-08T20:15:16;4.20;57.20
68011;DHT22;54794;48.348;7.878;2023-02-08T20:18:20;4.20;56.90
68011;DHT22;54794;48.348;7.878;2023-02-08T20:21:03;5.00;57.60
68011;DHT22;54794;48.348;7.878;2023-02-08T20:23:40;4.10;56.90
68011;DHT22;54794;48.348;7.878;2023-02-08T20:26:08;5.00;57.70
68011;DHT22;54794;48.348;7.878;2023-02-08T20:28:46;4.00;57.20
68011;DHT22;54794;48.348;7.878;2023-02-08T20:31:32;4.00;57.20
68011;DHT22;54794;48.348;7.878;2023-02-08T20:34:03;4.40;57.50
68011;DHT22;54794;48.348;7.878;2023-02-08T20:36:48;4.00;57.20
68011;DHT22;54794;48.348;7.878;2023-02-08T20:39:34;4.80;57.50
68011;DHT22;54794;48.348;7.878;2023-02-08T20:42:07;4.00;57.00
68011;DHT22;54794;48.348;7.878;2023-02-08T20:44:39;4.70;57.60
68011;DHT22;54794;48.348;7.878;2023-02-08T20:47:18;4.20;57.30
68011;DHT22;54794;48.348;7.878;2023-02-08T20:50:10;4.00;57.30
68011;DHT22;54794;48.348;7.878;2023-02-08T20:52:53;4.00;57.20
68011;DHT22;54794;48.348;7.878;2023-02-08T20:55:23;3.80;57.00
68011;DHT22;54794;48.348;7.878;2023-02-08T20:57:50;4.60;57.50
68011;DHT22;54794;48.348;7.878;2023-02-08T21:00:17;4.90;57.70
68011;DHT22;54794;48.348;7.878;2023-02-08T21:02:47;4.00;57.10
68011;DHT22;54794;48.348;7.878;2023-02-08T21:05:14;4.40;57.20
68011;DHT22;54794;48.348;7.878;2023-02-08T21:07:41;4.00;56.90
68011;DHT22;54794;48.348;7.878;2023-02-08T21:10:11;4.60;57.30
68011;DHT22;54794;48.348;7.878;2023-02-08T21:12:38;4.80;57.30
68011;DHT22;54794;48.348;7.878;2023-02-08T21:15:08;4.90;57.40
68011;DHT22;54794;48.348;7.878;2023-02-08T21:17:36;4.00;56.90
68011;DHT22;54794;48.348;7.878;2023-02-08T21:20:06;4.80;57.70
68011;DHT22;54794;48.348;7.878;2023-02-08T21:22:50;4.00;56.90
68011;DHT22;54794;48.348;7.878;2023-02-08T21:25:22;4.00;56.90
68011;DHT22;54794;48.348;7.878;2023-02-08T21:27:59;4.50;57.30
68011;DHT22;54794;48.348;7.878;2023-02-08T21:30:29;4.60;57.20
68011;DHT22;54794;48.348;7.878;2023-02-08T21:33:05;4.70;57.20
68011;DHT22;54794;48.348;7.878;2023-02-08T21:35:39;4.00;56.80
68011;DHT22;54794;48.348;7.878;2023-02-08T21:38:22;3.90;56.80
68011;DHT22;54794;48.348;7.878;2023-02-08T21:40:57;4.80;57.20
68011;DHT22;54794;48.348;7.878;2023-02-08T21:43:31;3.90;56.70
68011;DHT22;54794;48.348;7.878;2023-02-08T21:46:10;3.60;56.70
68011;DHT22;54794;48.348;7.878;2023-02-08T21:48:46;4.40;57.00
68011;DHT22;54794;48.348;7.878;2023-02-08T21:51:35;4.40;57.00
68011;DHT22;54794;48.348;7.878;2023-02-08T21:54:33;4.80;57.30
68011;DHT22;54794;48.348;7.878;2023-02-08T21:57:30;3.90;56.80
68011;DHT22;54794;48.348;7.878;2023-02-08T22:00:17;4.00;56.90
68011;DHT22;54794;48.348;7.878;2023-02-08T22:02:58;3.90;56.90
68011;DHT22;54794;48.348;7.878;2023-02-08T22:05:39;3.90;56.80
68011;DHT22;54794;48.348;7.878;2023-02-08T22:08:15;4.20;56.80
68011;DHT22;54794;48.348;7.878;2023-02-08T22:10:52;4.60;57.10
68011;DHT22;54794;48.348;7.878;2023-02-08T22:13:42;3.80;56.60
68011;DHT22;54794;48.348;7.878;2023-02-08T22:16:20;4.10;57.00
68011;DHT22;54794;48.348;7.878;2023-02-08T22:19:01;4.70;57.30
68011;DHT22;54794;48.348;7.878;2023-02-08T22:21:49;4.40;57.10
68011;DHT22;54794;48.348;7.878;2023-02-08T22:24:40;3.90;56.90
68011;DHT22;54794;48.348;7.878;2023-02-08T22:27:22;3.80;56.70
68011;DHT22;54794;48.348;7.878;2023-02-08T22:29:58;4.20;57.10
68011;DHT22;54794;48.348;7.878;2023-02-08T22:32:34;4.40;57.30
68011;DHT22;54794;48.348;7.878;2023-02-08T22:35:18;4.00;57.10
68011;DHT22;54794;48.348;7.878;2023-02-08T22:37:55;3.80;56.90
68011;DHT22;54794;48.348;7.878;2023-02-08T22:40:39;3.70;56.90
68011;DHT22;54794;48.348;7.878;2023-02-08T22:43:29;4.60;57.30
68011;DHT22;54794;48.348;7.878;2023-02-08T22:45:59;3.80;57.00
68011;DHT22;54794;48.348;7.878;2023-02-08T22:48:44;3.70;56.80
68011;DHT22;54794;48.348;7.878;2023-02-08T22:51:17;3.70;56.80
68011;DHT22;54794;48.348;7.878;2023-02-08T22:53:59;3.80;56.90
68011;DHT22;54794;48.348;7.878;2023-02-08T22:56:38;4.60;57.50
68011;DHT22;54794;48.348;7.878;2023-02-08T22:59:13;3.70;56.90
68011;DHT22;54794;48.348;7.878;2023-02-08T23:01:47;4.20;57.00
68011;DHT22;54794;48.348;7.878;2023-02-08T23:04:24;3.70;56.90
68011;DHT22;54794;48.348;7.878;2023-02-08T23:07:01;3.70;57.00
68011;DHT22;54794;48.348;7.878;2023-02-08T23:09:44;4.10;57.20
68011;DHT22;54794;48.348;7.878;2023-02-08T23:12:19;3.70;57.00
68011;DHT22;54794;48.348;7.878;2023-02-08T23:14:59;4.00;57.20
68011;DHT22;54794;48.348;7.878;2023-02-08T23:17:58;3.50;57.00
68011;DHT22;54794;48.348;7.878;2023-02-08T23:20:29;3.70;57.00
68011;DHT22;54794;48.348;7.878;2023-02-08T23:23:15;3.70;56.90
68011;DHT22;54794;48.348;7.878;2023-02-08T23:25:49;4.00;57.00
68011;DHT22;54794;48.348;7.878;2023-02-08T23:28:30;3.50;56.60
68011;DHT22;54794;48.348;7.878;2023-02-08T23:31:10;3.50;56.90
68011;DHT22;54794;48.348;7.878;2023-02-08T23:33:58;3.40;56.80
68011;DHT22;54794;48.348;7.878;2023-02-08T23:36:41;3.50;57.00
68011;DHT22;54794;48.348;7.878;2023-02-08T23:39:26;3.70;57.10
68011;DHT22;54794;48.348;7.878;2023-02-08T23:42:00;3.60;57.10
68011;DHT22;54794;48.348;7.878;2023-02-08T23:44:28;3.80;57.20
68011;DHT22;54794;48.348;7.878;2023-02-08T23:47:18;3.10;56.90
68011;DHT22;54794;48.348;7.878;2023-02-08T23:49:59;3.30;56.90
68011;DHT22;54794;48.348;7.878;2023-02-08T23:52:50;3.80;57.40
68011;DHT22;54794;48.348;7.878;2023-02-08T23:55:23;3.40;57.10
68011;DHT22;54794;48.348;7.878;2023-02-08T23:58:05;2.90;57.00
